Time;durP1;ratioP1;P1;durP2;ratioP2;P2;SDS_P1;SDS_P2;PMS_P1;PMS_P2;Temp;Humidity;BMP_temperature;BMP_pressure;BME280_temperature;BME280_humidity;BME280_pressure;Samples;Min_cycle;Max_cycle;Signal;HPM_P1;HPM_P2
2023/12/15 00:01:31;;;;;;;5.53;3.50;;;22.90;53.60;;;;;;5004555;28;20038;-72
2023/12/15 00:03:57;;;;;;;4.88;3.88;;;22.70;53.60;;;;;;5001106;28;20036;-73
2023/12/15 00:06:23;;;;;;;6.97;4.10;;;22.80;53.60;;;;;;4999577;28;20061;-73
2023/12/15 00:08:49;;;;;;;4.97;3.50;;;22.70;53.60;;;;;;4990879;28;20042;-73
2023/12/15 00:11:15;;;;;;;7.57;3.50;;;22.90;53.70;;;;;;4990090;28;20096;-73
2023/12/15 00:13:41;;;;;;;7.53;3.90;;;22.70;53.60;;;;;;4988636;28;20065;-73
2023/12/15 00:16:07;;;;;;;6.10;3.55;;;22.70;53.70;;;;;;5024115;28;20493;-73
2023/12/15 00:18:33;;;;;;;6.95;4.05;;;22.80;53.70;;;;;;5047356;28;20045;-73
2023/12/15 00:20:59;;;;;;;6.60;3.55;;;22.70;53.70;;;;;;5029202;28;20033;-73
2023/12/15 00:23:25;;;;;;;6.78;4.20;;;22.70;53.60;;;;;;5062840;28;20127;-73
2023/12/15 00:25:52;;;;;;;7.95;4.43;;;22.80;53.60;;;;;;5071290;28;20044;-73
2023/12/15 00:28:18;;;;;;;5.50;3.85;;;22.90;53.80;;;;;;5071203;28;20032;-73
2023/12/15 00:30:44;;;;;;;4.65;3.60;;;22.80;53.60;;;;;;5073928;28;20120;-73
2023/12/15 00:33:10;;;;;;;5.38;3.70;;;22.70;53.70;;;;;;5090968;28;20380;-72
2023/12/15 00:35:36;;;;;;;5.43;3.20;;;22.70;53.70;;;;;;5088190;28;20108;-73
2023/12/15 00:38:02;;;;;;;5.35;3.80;;;22.90;53.80;;;;;;5070834;28;20876;-73
2023/12/15 00:40:28;;;;;;;8.32;3.70;;;22.70;53.60;;;;;;5085956;28;20032;-73
2023/12/15 00:42:54;;;;;;;5.20;3.80;;;22.90;53.70;;;;;;5079810;28;20039;-73
2023/12/15 00:45:20;;;;;;;4.20;3.42;;;22.70;53.60;;;;;;5090852;28;20032;-72
2023/12/15 00:47:47;;;;;;;6.90;3.85;;;22.80;53.60;;;;;;5074828;28;20434;-73
2023/12/15 00:50:13;;;;;;;4.25;3.40;;;22.70;53.60;;;;;;5073003;28;20044;-72
2023/12/15 00:52:39;;;;;;;6.57;3.72;;;22.80;53.60;;;;;;5080428;28;20032;-73
2023/12/15 00:55:05;;;;;;;6.03;3.63;;;22.70;53.70;;;;;;5071068;28;20029;-73
2023/12/15 00:57:31;;;;;;;5.15;3.60;;;22.80;53.60;;;;;;5082398;28;20035;-73
2023/12/15 00:59:57;;;;;;;5.38;3.80;;;22.70;53.70;;;;;;5073188;28;20032;-73
2023/12/15 01:02:23;;;;;;;4.88;3.50;;;22.70;53.70;;;;;;5080204;28;20119;-73
2023/12/15 01:04:50;;;;;;;4.47;3.42;;;22.70;53.70;;;;;;5087534;28;20123;-73
2023/12/15 01:07:16;;;;;;;4.80;3.30;;;22.70;53.70;;;;;;5088653;28;20097;-73
2023/12/15 01:09:42;;;;;;;5.35;3.50;;;22.60;53.70;;;;;;5091171;28;20032;-72
2023/12/15 01:12:08;;;;;;;4.93;3.50;;;22.70;53.70;;;;;;5091236;28;20036;-73
2023/12/15 01:14:34;;;;;;;4.57;2.95;;;22.60;53.70;;;;;;5089464;28;21059;-73
2023/12/15 01:17:00;;;;;;;8.05;3.30;;;22.70;53.90;;;;;;5061573;28;20068;-73
2023/12/15 01:19:26;;;;;;;4.53;3.35;;;22.70;53.90;;;;;;5051040;28;20041;-73
2023/12/15 01:21:52;;;;;;;6.28;3.33;;;22.60;53.70;;;;;;5059361;28;20109;-72
2023/12/15 01:24:18;;;;;;;3.75;3.28;;;22.80;53.80;;;;;;5057196;28;20040;-73
2023/12/15 01:26:44;;;;;;;5.35;3.10;;;22.70;53.80;;;;;;5055429;28;20408;-72
2023/12/15 01:29:10;;;;;;;6.55;3.95;;;22.60;53.70;;;;;;5032562;28;20071;-73
2023/12/15 01:31:36;;;;;;;6.65;3.33;;;22.60;53.70;;;;;;5064697;28;20107;-73
2023/12/15 01:34:02;;;;;;;4.75;3.80;;;22.70;53.80;;;;;;5049413;28;20067;-73
2023/12/15 01:36:28;;;;;;;7.65;4.00;;;22.60;53.70;;;;;;5059803;28;20052;-72
2023/12/15 01:38:56;;;;;;;6.30;3.80;;;22.70;53.70;;;;;;5050406;28;20024;-73
2023/12/15 01:41:23;;;;;;;6.15;3.90;;;22.80;53.70;;;;;;5051073;28;20079;-73
2023/12/15 01:43:49;;;;;;;7.60;4.15;;;22.70;53.70;;;;;;5055346;28;20033;-73
2023/12/15 01:46:15;;;;;;;6.95;3.95;;;22.70;53.70;;;;;;5062954;28;20024;-73
2023/12/15 01:48:41;;;;;;;7.03;4.50;;;22.70;53.70;;;;;;5070466;28;20418;-73
2023/12/15 01:51:07;;;;;;;6.70;4.13;;;22.70;53.70;;;;;;5074685;28;20036;-73
2023/12/15 01:53:33;;;;;;;5.75;3.50;;;22.80;53.70;;;;;;5072306;28;20040;-73
2023/12/15 01:56:00;;;;;;;7.97;3.83;;;22.70;53.70;;;;;;5054115;28;20037;-72
2023/12/15 01:58:26;;;;;;;9.88;4.03;;;22.60;53.70;;;;;;5056483;28;20086;-73
2023/12/15 02:00:52;;;;;;;7.47;3.40;;;22.50;53.70;;;;;;5068837;28;20487;-73
2023/12/15 02:03:18;;;;;;;7.20;3.50;;;22.60;53.70;;;;;;5072769;28;20395;-73
2023/12/15 02:05:44;;;;;;;8.38;4.28;;;22.60;53.70;;;;;;5072308;28;20021;-73
2023/12/15 02:08:10;;;;;;;5.05;3.58;;;22.60;53.70;;;;;;5072133;28;20044;-73
2023/12/15 02:10:38;;;;;;;6.20;3.38;;;22.50;53.70;;;;;;5074131;28;20349;-73
2023/12/15 02:13:05;;;;;;;7.70;3.60;;;22.60;53.70;;;;;;5069121;28;20044;-72
2023/12/15 02:15:31;;;;;;;4.57;3.13;;;22.40;53.70;;;;;;5059638;28;20060;-73
2023/12/15 02:17:57;;;;;;;5.00;3.00;;;22.50;53.70;;;;;;5077019;28;20024;-73
2023/12/15 02:20:23;;;;;;;5.15;3.60;;;22.60;53.70;;;;;;5074269;28;20651;-73
2023/12/15 02:22:49;;;;;;;4.47;2.78;;;22.60;53.80;;;;;;5072676;28;20157;-73
2023/12/15 02:25:15;;;;;;;6.38;3.30;;;22.60;53.70;;;;;;5076740;28;20032;-73
2023/12/15 02:27:41;;;;;;;5.95;3.10;;;22.50;53.70;;;;;;5092202;28;20093;-72
2023/12/15 02:30:07;;;;;;;4.38;3.28;;;22.60;53.70;;;;;;5085146;28;20025;-73
2023/12/15 02:32:33;;;;;;;4.00;2.92;;;22.60;53.70;;;;;;5074629;28;20020;-73
2023/12/15 02:34:59;;;;;;;5.68;3.10;;;22.80;53.70;;;;;;5072013;28;20059;-73
2023/12/15 02:37:27;;;;;;;3.97;3.03;;;22.70;53.70;;;;;;5075806;28;20051;-73
2023/12/15 02:39:53;;;;;;;6.40;3.63;;;22.70;53.70;;;;;;5073394;28;20032;-72
2023/12/15 02:42:19;;;;;;;5.10;3.10;;;22.70;53.60;;;;;;5089205;28;20036;-73
2023/12/15 02:44:46;;;;;;;4.30;3.10;;;22.60;53.60;;;;;;5081353;28;20445;-73
2023/12/15 02:47:12;;;;;;;3.83;2.70;;;22.70;53.60;;;;;;5083707;28;20032;-73
2023/12/15 02:49:41;;;;;;;3.95;3.08;;;22.60;53.50;;;;;;5080069;28;20100;-73
2023/12/15 02:52:07;;;;;;;3.30;2.65;;;22.60;53.50;;;;;;5091393;28;20056;-72
2023/12/15 02:54:34;;;;;;;6.03;3.13;;;22.60;53.60;;;;;;5089071;28;20143;-73
2023/12/15 02:57:00;;;;;;;5.03;3.15;;;22.50;53.60;;;;;;5074427;28;20032;-73
2023/12/15 02:59:26;;;;;;;5.20;2.95;;;22.50;53.60;;;;;;5081359;28;20042;-73
2023/12/15 03:01:52;;;;;;;5.25;2.75;;;22.50;53.60;;;;;;5079037;28;20456;-73
2023/12/15 03:04:18;;;;;;;2.00;1.80;;;22.50;53.60;;;;;;5072888;28;20033;-74
2023/12/15 03:06:44;;;;;;;2.15;1.92;;;22.60;53.00;;;;;;5074046;28;20058;-70
2023/12/15 03:09:11;;;;;;;3.53;2.33;;;23.00;52.00;;;;;;5076396;28;20025;-70
2023/12/15 03:11:37;;;;;;;3.25;2.08;;;23.10;51.50;;;;;;5073156;28;20033;-69
2023/12/15 03:14:03;;;;;;;2.10;2.00;;;23.40;50.20;;;;;;5080976;28;20031;-70
2023/12/15 03:16:29;;;;;;;2.92;2.40;;;23.50;49.20;;;;;;5076312;28;20048;-69
2023/12/15 03:18:56;;;;;;;3.85;2.72;;;23.80;49.40;;;;;;5056379;28;20037;-72
2023/12/15 03:21:22;;;;;;;3.88;2.80;;;23.60;51.60;;;;;;5055631;28;20374;-72
2023/12/15 03:23:48;;;;;;;5.07;3.72;;;23.50;51.70;;;;;;5070823;28;20032;-72
2023/12/15 03:26:14;;;;;;;4.15;2.63;;;23.30;51.40;;;;;;5072695;28;20028;-72
2023/12/15 03:28:40;;;;;;;4.32;3.33;;;23.40;51.40;;;;;;5056415;28;20036;-71
2023/12/15 03:31:09;;;;;;;3.30;2.50;;;23.50;51.50;;;;;;5034429;28;20052;-72
2023/12/15 03:33:36;;;;;;;5.05;3.50;;;23.50;51.50;;;;;;5053224;28;20021;-72
2023/12/15 03:36:03;;;;;;;5.03;2.88;;;23.50;51.50;;;;;;5062929;28;20040;-72
2023/12/15 03:38:29;;;;;;;2.97;2.70;;;23.40;51.40;;;;;;5034311;28;20032;-72
2023/12/15 03:40:55;;;;;;;4.22;3.00;;;23.60;51.40;;;;;;5071817;28;20664;-72
2023/12/15 03:43:21;;;;;;;4.00;3.13;;;23.40;51.30;;;;;;5061336;28;20025;-72
2023/12/15 03:45:47;;;;;;;4.95;3.13;;;23.50;51.50;;;;;;5051901;28;20028;-72
2023/12/15 03:48:14;;;;;;;6.55;3.28;;;23.40;51.40;;;;;;5065019;28;20035;-72
2023/12/15 03:50:40;;;;;;;6.32;3.47;;;23.30;51.40;;;;;;5072006;28;20037;-72
2023/12/15 03:53:06;;;;;;;4.22;3.25;;;23.30;51.50;;;;;;5053719;28;20040;-72
2023/12/15 03:55:32;;;;;;;4.70;3.22;;;23.30;51.60;;;;;;5057593;28;20047;-72
2023/12/15 03:57:58;;;;;;;4.45;3.10;;;23.20;51.60;;;;;;5052387;28;20029;-72
2023/12/15 04:00:24;;;;;;;5.25;3.95;;;23.20;51.60;;;;;;5052685;28;20417;-72
2023/12/15 04:02:50;;;;;;;3.97;3.08;;;23.20;51.70;;;;;;5052740;28;20421;-72
2023/12/15 04:05:16;;;;;;;5.90;3.28;;;23.30;51.90;;;;;;5032071;28;20094;-72
2023/12/15 04:07:42;;;;;;;4.20;3.00;;;23.20;51.90;;;;;;5034639;28;20049;-72
2023/12/15 04:10:09;;;;;;;3.95;3.15;;;23.00;51.90;;;;;;5062062;28;20169;-72
2023/12/15 04:12:35;;;;;;;6.13;3.38;;;23.10;52.00;;;;;;5069662;28;20459;-72
2023/12/15 04:15:01;;;;;;;3.80;3.25;;;23.10;52.00;;;;;;5068368;28;20124;-72
2023/12/15 04:17:27;;;;;;;5.60;3.38;;;23.00;52.00;;;;;;5061953;28;20079;-73
2023/12/15 04:19:53;;;;;;;5.28;2.75;;;22.90;52.10;;;;;;5051732;28;20391;-72
2023/12/15 04:22:19;;;;;;;4.10;2.78;;;23.00;52.20;;;;;;5051362;28;20087;-72
2023/12/15 04:24:45;;;;;;;6.07;3.42;;;23.10;52.30;;;;;;5052731;28;20025;-72
2023/12/15 04:27:11;;;;;;;4.10;3.33;;;23.00;52.20;;;;;;5054440;28;20046;-73
2023/12/15 04:29:37;;;;;;;4.82;3.00;;;22.80;52.20;;;;;;5051553;28;20364;-71
2023/12/15 04:32:03;;;;;;;4.68;3.42;;;22.90;52.40;;;;;;5065793;28;20032;-72
2023/12/15 04:34:29;;;;;;;4.78;3.55;;;22.80;52.40;;;;;;5053501;28;20125;-72
2023/12/15 04:36:55;;;;;;;5.72;3.60;;;22.80;52.50;;;;;;5052342;28;20131;-72
2023/12/15 04:39:21;;;;;;;3.90;3.03;;;22.80;52.50;;;;;;5051339;28;20067;-72
2023/12/15 04:41:47;;;;;;;4.07;3.13;;;22.80;51.90;;;;;;5053036;28;20053;-72
2023/12/15 04:44:13;;;;;;;3.97;3.10;;;22.90;52.20;;;;;;5002180;28;20149;-72
2023/12/15 04:46:39;;;;;;;5.55;3.45;;;22.80;52.30;;;;;;5051799;28;20400;-72
2023/12/15 04:49:05;;;;;;;6.18;3.50;;;22.90;52.30;;;;;;5052365;28;20080;-73
2023/12/15 04:51:31;;;;;;;4.68;3.60;;;22.80;52.30;;;;;;5060139;28;20040;-72
2023/12/15 04:53:57;;;;;;;4.03;3.47;;;22.80;52.30;;;;;;5051578;28;20146;-72
2023/12/15 04:56:23;;;;;;;4.25;3.28;;;22.90;52.50;;;;;;5051742;28;20047;-72
2023/12/15 04:58:50;;;;;;;5.22;3.15;;;22.80;52.30;;;;;;5068618;28;20048;-72
2023/12/15 05:01:16;;;;;;;4.60;3.08;;;22.90;52.40;;;;;;5061707;28;20032;-72
2023/12/15 05:03:43;;;;;;;9.00;3.33;;;22.90;52.30;;;;;;5050709;28;20025;-72
2023/12/15 05:06:19;;;;;;;4.00;3.45;;;22.80;52.20;;;;;;5059737;28;20046;-72
2023/12/15 05:08:50;;;;;;;3.90;2.92;;;22.80;52.30;;;;;;5065531;28;20037;-72
2023/12/15 05:11:17;;;;;;;3.30;2.85;;;22.70;52.30;;;;;;5070854;28;20434;-72
2023/12/15 05:13:43;;;;;;;4.00;3.03;;;22.90;52.30;;;;;;5056332;28;20480;-72
2023/12/15 05:16:09;;;;;;;6.68;3.17;;;22.90;52.30;;;;;;5057343;28;20043;-73
2023/12/15 05:18:35;;;;;;;4.38;3.03;;;22.90;52.30;;;;;;5068650;28;20396;-71
2023/12/15 05:21:01;;;;;;;3.63;3.28;;;22.80;52.20;;;;;;5070817;28;20032;-72
2023/12/15 05:23:27;;;;;;;4.60;3.30;;;22.80;52.20;;;;;;5058430;28;20488;-72
2023/12/15 05:25:53;;;;;;;3.80;2.88;;;22.90;52.20;;;;;;5052020;28;20036;-72
2023/12/15 05:28:20;;;;;;;5.85;3.15;;;22.90;52.20;;;;;;5056786;28;20040;-72
2023/12/15 05:30:46;;;;;;;3.72;3.00;;;22.90;52.20;;;;;;5061993;28;20577;-72
2023/12/15 05:33:12;;;;;;;3.47;3.10;;;23.00;52.20;;;;;;5058356;28;20116;-72
2023/12/15 05:35:38;;;;;;;3.88;3.22;;;22.90;52.20;;;;;;5050516;28;20402;-71
2023/12/15 05:38:03;;;;;;;4.05;2.90;;;22.90;52.20;;;;;;5051367;28;20033;-73
2023/12/15 05:40:30;;;;;;;4.18;3.05;;;23.00;52.20;;;;;;5051704;28;20375;-73
2023/12/15 05:42:56;;;;;;;3.88;2.92;;;22.90;52.20;;;;;;5051833;28;20660;-72
2023/12/15 05:45:22;;;;;;;3.35;2.78;;;22.90;52.10;;;;;;5050533;28;20385;-72
2023/12/15 05:47:51;;;;;;;4.40;3.65;;;22.90;52.10;;;;;;5052495;28;20036;-73
2023/12/15 05:50:17;;;;;;;3.85;3.17;;;23.00;52.10;;;;;;5050397;28;20645;-72
2023/12/15 05:52:43;;;;;;;4.00;3.15;;;22.80;51.90;;;;;;5058514;28;20029;-72
2023/12/15 05:55:09;;;;;;;3.88;2.90;;;23.00;52.10;;;;;;5050360;28;20037;-72
2023/12/15 05:57:35;;;;;;;4.03;3.10;;;22.90;52.00;;;;;;5056705;28;20047;-72
2023/12/15 06:00:01;;;;;;;4.75;3.22;;;22.90;52.00;;;;;;5070466;28;20107;-72
2023/12/15 06:02:28;;;;;;;4.22;2.90;;;22.70;51.90;;;;;;5050719;28;20039;-72
2023/12/15 06:04:54;;;;;;;4.03;3.30;;;22.90;52.00;;;;;;5070533;28;20036;-72
2023/12/15 06:07:19;;;;;;;7.97;2.95;;;22.80;51.90;;;;;;5069532;28;20689;-72
2023/12/15 06:09:45;;;;;;;7.15;3.67;;;22.80;52.00;;;;;;5050844;28;20493;-72
2023/12/15 06:12:11;;;;;;;3.67;2.88;;;22.90;52.10;;;;;;5033441;28;20469;-73
2023/12/15 06:14:37;;;;;;;5.38;3.30;;;22.80;52.00;;;;;;5034652;28;20477;-71
2023/12/15 06:17:06;;;;;;;3.17;2.42;;;22.90;52.10;;;;;;5050899;28;20093;-73
2023/12/15 06:19:33;;;;;;;3.92;3.10;;;22.70;51.90;;;;;;5060599;28;20021;-73
2023/12/15 06:21:59;;;;;;;3.30;2.90;;;22.90;52.00;;;;;;5069306;28;20041;-72
2023/12/15 06:24:26;;;;;;;4.20;2.50;;;22.80;52.50;;;;;;5062216;28;20119;-73
2023/12/15 06:26:52;;;;;;;4.47;3.00;;;22.90;51.80;;;;;;5051295;28;20032;-72
2023/12/15 06:29:18;;;;;;;5.03;3.72;;;22.90;51.80;;;;;;5053419;28;20037;-72
2023/12/15 06:31:48;;;;;;;4.85;3.28;;;22.90;51.80;;;;;;5041407;28;20106;-72
2023/12/15 06:34:15;;;;;;;4.47;2.67;;;22.80;51.70;;;;;;5068951;28;20036;-72
2023/12/15 06:36:41;;;;;;;4.88;3.20;;;22.70;51.70;;;;;;5071547;28;20044;-72
2023/12/15 06:39:07;;;;;;;6.18;2.70;;;22.80;51.70;;;;;;5054495;28;20648;-73
2023/12/15 06:41:33;;;;;;;5.22;3.13;;;22.70;51.70;;;;;;5062540;28;20024;-73
2023/12/15 06:43:59;;;;;;;4.60;2.97;;;22.70;51.80;;;;;;5067143;28;20035;-74
2023/12/15 06:46:25;;;;;;;2.90;1.80;;;22.70;51.80;;;;;;5041837;28;20547;-71
2023/12/15 06:48:53;;;;;;;1.70;1.60;;;22.60;50.60;;;;;;5063242;28;20421;-73
2023/12/15 06:51:19;;;;;;;2.97;1.88;;;22.70;46.10;;;;;;5060615;28;20377;-72
2023/12/15 06:53:45;;;;;;;2.00;1.75;;;22.70;44.70;;;;;;5061388;28;20048;-69
2023/12/15 06:56:11;;;;;;;2.08;1.73;;;22.70;49.30;;;;;;5044135;28;20048;-68
2023/12/15 06:58:37;;;;;;;2.28;1.90;;;22.70;46.90;;;;;;5063212;28;20097;-69
2023/12/15 07:01:04;;;;;;;2.40;2.20;;;22.90;44.40;;;;;;5060908;28;20472;-69
2023/12/15 07:03:30;;;;;;;4.78;2.15;;;22.70;47.80;;;;;;5008960;28;20032;-68
2023/12/15 07:05:56;;;;;;;3.10;2.33;;;23.00;50.60;;;;;;5060163;28;20107;-69
2023/12/15 07:08:22;;;;;;;3.33;2.38;;;23.00;51.20;;;;;;5056866;28;20021;-70
2023/12/15 07:10:48;;;;;;;3.00;2.38;;;23.10;51.40;;;;;;5030568;28;20041;-73
2023/12/15 07:13:14;;;;;;;4.20;2.50;;;23.10;44.60;;;;;;5062308;28;20052;-72
2023/12/15 07:15:40;;;;;;;3.72;2.80;;;23.10;54.80;;;;;;5060040;28;20056;-72
2023/12/15 07:18:06;;;;;;;3.70;2.72;;;23.20;54.70;;;;;;5060543;28;20603;-74
2023/12/15 07:20:33;;;;;;;5.32;3.20;;;23.30;54.30;;;;;;4999913;28;20127;-73
2023/12/15 07:22:58;;;;;;;4.30;2.85;;;23.20;53.90;;;;;;5013668;28;20053;-74
2023/12/15 07:25:24;;;;;;;5.50;3.50;;;23.20;53.80;;;;;;5015869;28;20497;-72
2023/12/15 07:27:51;;;;;;;5.90;3.15;;;23.20;53.90;;;;;;5026812;28;20125;-72
2023/12/15 07:30:17;;;;;;;6.38;3.33;;;23.20;54.10;;;;;;4976286;28;20034;-72
2023/12/15 07:32:43;;;;;;;4.53;3.30;;;23.00;54.10;;;;;;5020015;28;20485;-73
2023/12/15 07:35:09;;;;;;;4.07;2.63;;;23.10;54.20;;;;;;5025879;28;20116;-75
2023/12/15 07:37:35;;;;;;;3.70;2.03;;;23.20;54.10;;;;;;5026035;28;20545;-74
2023/12/15 07:40:03;;;;;;;3.00;1.77;;;23.00;54.40;;;;;;5027149;28;20037;-70
2023/12/15 07:42:30;;;;;;;6.25;2.38;;;23.10;54.50;;;;;;5018932;28;20038;-73
2023/12/15 07:44:56;;;;;;;6.43;3.28;;;23.00;56.10;;;;;;5012168;28;20045;-70
2023/12/15 07:47:22;;;;;;;3.85;3.05;;;23.10;56.00;;;;;;5010703;28;20041;-68
2023/12/15 07:49:48;;;;;;;2.67;1.73;;;23.00;55.40;;;;;;5010647;28;20046;-68
2023/12/15 07:52:14;;;;;;;4.45;3.22;;;23.00;54.70;;;;;;4985736;28;20034;-69
2023/12/15 07:54:40;;;;;;;2.88;1.70;;;23.00;54.20;;;;;;5018367;28;20527;-73
2023/12/15 07:57:06;;;;;;;2.85;2.25;;;23.10;53.80;;;;;;5026195;28;20043;-72
2023/12/15 07:59:35;;;;;;;7.18;2.50;;;23.10;53.30;;;;;;5043259;28;20024;-71
2023/12/15 08:02:03;;;;;;;5.45;2.97;;;23.10;52.80;;;;;;5027125;28;20032;-73
2023/12/15 08:04:28;;;;;;;3.63;1.98;;;23.10;53.50;;;;;;5045361;28;20374;-72
2023/12/15 08:06:54;;;;;;;3.25;2.95;;;23.50;55.90;;;;;;5062141;28;20078;-73
2023/12/15 08:09:20;;;;;;;4.30;2.97;;;24.10;56.40;;;;;;5058834;28;20103;-75
2023/12/15 08:11:46;;;;;;;4.57;2.30;;;24.40;58.50;;;;;;5060189;28;20020;-73
2023/12/15 08:14:12;;;;;;;3.05;2.33;;;24.30;53.60;;;;;;5062061;28;20028;-74
2023/12/15 08:16:38;;;;;;;3.42;2.47;;;24.10;51.10;;;;;;5062316;28;20509;-72
2023/12/15 08:19:08;;;;;;;4.28;2.08;;;24.00;50.00;;;;;;5061456;28;20044;-74
2023/12/15 08:21:34;;;;;;;3.75;1.58;;;23.80;49.40;;;;;;5060013;28;20525;-76
2023/12/15 08:24:00;;;;;;;2.35;2.15;;;23.70;49.40;;;;;;5061004;28;20476;-72
2023/12/15 08:26:27;;;;;;;3.45;2.08;;;23.70;49.20;;;;;;5058993;28;20099;-77
2023/12/15 08:28:54;;;;;;;4.30;2.17;;;23.60;50.10;;;;;;5058704;28;20032;-76
2023/12/15 08:31:21;;;;;;;4.10;2.42;;;23.60;49.70;;;;;;5060751;28;20465;-74
2023/12/15 08:33:46;;;;;;;2.22;2.03;;;23.50;49.90;;;;;;5043615;28;20025;-75
2023/12/15 08:36:12;;;;;;;2.97;2.67;;;23.50;49.80;;;;;;5062381;28;20107;-75
2023/12/15 08:38:38;;;;;;;3.50;2.80;;;23.50;49.50;;;;;;5060723;28;20116;-76
2023/12/15 08:41:06;;;;;;;1.65;1.45;;;23.50;49.50;;;;;;5060980;28;20029;-80
2023/12/15 08:43:32;;;;;;;3.92;2.17;;;23.40;49.50;;;;;;5041816;28;20021;-75
2023/12/15 08:45:57;;;;;;;3.53;2.78;;;23.50;49.50;;;;;;5059968;28;20047;-74
2023/12/15 08:48:24;;;;;;;3.35;2.35;;;23.60;49.30;;;;;;5042446;28;20052;-76
2023/12/15 08:50:50;;;;;;;3.05;2.28;;;23.40;49.20;;;;;;5058545;28;20033;-75
2023/12/15 08:53:18;;;;;;;2.80;2.50;;;23.40;49.40;;;;;;5061222;28;20039;-76
2023/12/15 08:55:45;;;;;;;4.70;3.03;;;23.40;49.70;;;;;;5060668;28;20063;-75
2023/12/15 08:58:11;;;;;;;3.88;2.60;;;23.20;49.80;;;;;;5057078;28;20047;-79
2023/12/15 09:00:37;;;;;;;7.35;2.58;;;23.20;49.90;;;;;;5059495;28;20040;-77
2023/12/15 09:03:03;;;;;;;3.40;2.20;;;23.20;50.50;;;;;;5048383;28;20017;-77
2023/12/15 09:05:31;;;;;;;5.20;3.15;;;23.10;50.80;;;;;;5048318;28;20821;-77
2023/12/15 09:07:57;;;;;;;5.35;2.97;;;23.10;50.90;;;;;;5047626;28;20108;-78
2023/12/15 09:10:24;;;;;;;7.10;3.72;;;23.10;51.00;;;;;;5030762;28;20056;-77
2023/12/15 09:12:50;;;;;;;3.17;2.70;;;23.10;51.10;;;;;;5061347;28;20047;-77
2023/12/15 09:15:16;;;;;;;4.00;2.88;;;23.10;51.30;;;;;;5043733;28;20424;-76
2023/12/15 09:17:43;;;;;;;5.50;3.05;;;23.10;51.30;;;;;;5054298;28;20079;-78
2023/12/15 09:20:10;;;;;;;4.07;2.80;;;23.00;51.20;;;;;;5078966;28;20102;-75
2023/12/15 09:22:37;;;;;;;3.45;2.97;;;23.10;51.30;;;;;;5073899;28;20020;-79
2023/12/15 09:25:04;;;;;;;3.90;2.50;;;23.00;51.40;;;;;;5081699;28;20067;-76
2023/12/15 09:27:30;;;;;;;3.67;2.40;;;22.90;51.60;;;;;;5037581;28;20068;-75
2023/12/15 09:29:55;;;;;;;4.10;2.55;;;23.00;51.70;;;;;;5068664;28;20079;-76
2023/12/15 09:32:21;;;;;;;3.17;2.35;;;22.90;52.00;;;;;;5078275;28;20122;-77
2023/12/15 09:34:47;;;;;;;7.93;2.42;;;22.80;52.90;;;;;;5081621;28;20028;-74
2023/12/15 09:37:13;;;;;;;3.28;2.60;;;22.90;53.40;;;;;;5074178;28;20090;-76
2023/12/15 09:39:39;;;;;;;4.70;3.08;;;22.80;53.40;;;;;;5072710;28;20036;-73
2023/12/15 09:42:06;;;;;;;3.78;2.33;;;22.80;53.70;;;;;;5086432;28;20437;-77
2023/12/15 09:44:32;;;;;;;5.82;3.03;;;22.70;53.90;;;;;;5086621;28;20063;-74
2023/12/15 09:46:58;;;;;;;4.15;2.90;;;22.60;53.90;;;;;;5084425;28;20140;-73
2023/12/15 09:49:25;;;;;;;7.28;3.78;;;22.70;54.20;;;;;;5079361;28;20058;-76
2023/12/15 09:51:52;;;;;;;5.20;3.63;;;22.80;54.30;;;;;;5073796;28;20119;-80
2023/12/15 09:54:19;;;;;;;5.50;3.58;;;22.60;54.20;;;;;;5085848;28;20451;-79
2023/12/15 09:56:46;;;;;;;4.07;2.15;;;22.80;54.40;;;;;;5072702;28;20036;-81
2023/12/15 09:59:13;;;;;;;2.72;1.90;;;22.80;54.50;;;;;;5076376;28;20029;-78
2023/12/15 10:01:39;;;;;;;6.13;2.95;;;22.80;54.60;;;;;;5073423;28;20044;-77
2023/12/15 10:04:05;;;;;;;9.77;4.22;;;22.70;54.80;;;;;;5077097;28;20478;-80
2023/12/15 10:06:36;;;;;;;4.72;2.95;;;22.90;55.00;;;;;;5079378;28;20030;-84
2023/12/15 10:09:09;;;;;;;8.00;3.55;;;22.80;55.10;;;;;;5087775;28;20048;-79
2023/12/15 10:11:36;;;;;;;3.78;2.58;;;22.90;55.20;;;;;;5080560;28;20816;-80
2023/12/15 10:14:04;;;;;;;2.92;2.40;;;22.90;55.40;;;;;;5087328;28;20062;-73
2023/12/15 10:16:31;;;;;;;2.63;2.00;;;22.90;55.40;;;;;;5071852;28;20064;-83
2023/12/15 10:18:57;;;;;;;5.07;1.92;;;22.80;55.10;;;;;;5012205;28;20388;-80
2023/12/15 10:21:23;;;;;;;3.00;2.20;;;22.80;55.00;;;;;;5062334;28;20048;-77
2023/12/15 10:23:49;;;;;;;4.10;2.47;;;22.70;55.00;;;;;;5067073;28;20036;-72
2023/12/15 10:26:15;;;;;;;2.88;2.17;;;22.70;54.80;;;;;;5064828;28;20033;-77
2023/12/15 10:28:42;;;;;;;4.68;2.40;;;22.80;54.60;;;;;;5070706;28;20032;-74
2023/12/15 10:31:08;;;;;;;4.22;3.33;;;22.80;54.60;;;;;;5040732;28;20025;-77
2023/12/15 10:33:35;;;;;;;3.72;2.10;;;22.80;54.70;;;;;;5066729;28;20183;-79
2023/12/15 10:36:02;;;;;;;2.13;1.90;;;22.70;54.50;;;;;;5011145;28;20071;-77
2023/12/15 10:38:31;;;;;;;2.40;2.20;;;22.70;54.60;;;;;;5030920;28;20103;-78
2023/12/15 10:40:58;;;;;;;4.80;2.95;;;22.70;54.10;;;;;;5058642;28;20057;-74
2023/12/15 10:43:25;;;;;;;3.67;2.65;;;22.80;53.50;;;;;;5056109;28;20473;-78
2023/12/15 10:45:52;;;;;;;5.38;3.20;;;22.70;54.00;;;;;;5057948;28;20033;-75
2023/12/15 10:48:20;;;;;;;4.40;2.50;;;22.60;54.90;;;;;;5060033;28;20780;-75
2023/12/15 10:50:47;;;;;;;4.18;2.42;;;22.60;54.70;;;;;;5057434;28;20421;-78
2023/12/15 10:53:16;;;;;;;3.42;2.50;;;22.80;54.80;;;;;;5069072;28;20024;-79
2023/12/15 10:55:46;;;;;;;4.25;2.55;;;22.60;54.80;;;;;;5061177;28;20119;-82
2023/12/15 10:58:15;;;;;;;2.15;1.95;;;22.70;55.10;;;;;;5060831;28;20430;-74
2023/12/15 11:00:41;;;;;;;32.40;7.13;;;22.80;55.20;;;;;;5069301;28;20467;-73
2023/12/15 11:03:13;;;;;;;6.20;1.85;;;23.30;54.00;;;;;;5056131;28;20032;-73
2023/12/15 11:05:41;;;;;;;2.70;1.83;;;23.40;56.10;;;;;;5065103;28;20053;-73
2023/12/15 11:08:10;;;;;;;2.08;1.80;;;23.60;58.20;;;;;;5046282;28;20027;-73
2023/12/15 11:10:36;;;;;;;5.63;2.17;;;23.50;56.80;;;;;;5061528;28;20038;-81
2023/12/15 11:13:02;;;;;;;4.40;2.13;;;23.50;57.10;;;;;;5054884;28;20064;-75
2023/12/15 11:15:29;;;;;;;2.67;2.10;;;23.60;55.70;;;;;;5037306;28;20120;-76
2023/12/15 11:17:57;;;;;;;5.75;2.78;;;23.60;56.70;;;;;;5061825;28;20036;-70
2023/12/15 11:20:25;;;;;;;4.70;2.20;;;23.70;59.10;;;;;;5056820;28;20028;-70
2023/12/15 11:23:08;;;;;;;5.75;2.55;;;23.80;56.80;;;;;;5052333;28;20574;-69
2023/12/15 11:25:58;;;;;;;33.80;5.40;;;23.90;54.30;;;;;;5060533;28;20046;-71
2023/12/15 11:28:24;;;;;;;6.85;2.25;;;24.00;54.30;;;;;;5051936;28;20029;-70
2023/12/15 11:30:52;;;;;;;4.50;2.58;;;24.10;57.80;;;;;;5070314;28;20082;-70
2023/12/15 11:33:27;;;;;;;3.33;2.45;;;24.30;56.80;;;;;;5053556;28;20381;-69
2023/12/15 11:35:54;;;;;;;3.80;2.80;;;24.30;53.90;;;;;;5061832;28;20110;-70
2023/12/15 11:38:21;;;;;;;3.95;2.40;;;24.30;53.40;;;;;;5060621;28;20037;-69
2023/12/15 11:40:50;;;;;;;6.47;2.72;;;24.30;52.80;;;;;;5063885;28;20044;-70
2023/12/15 11:43:17;;;;;;;3.70;2.80;;;24.40;51.80;;;;;;5064394;28;20068;-81
2023/12/15 11:45:43;;;;;;;4.75;2.90;;;24.50;51.90;;;;;;5068858;28;20441;-79
2023/12/15 11:48:10;;;;;;;10.15;3.63;;;24.50;44.50;;;;;;5057562;28;21797;-85
2023/12/15 11:50:41;;;;;;;4.40;2.97;;;24.60;44.90;;;;;;5060534;28;20024;-83
2023/12/15 11:53:15;;;;;;;6.45;3.33;;;24.70;46.60;;;;;;5053742;28;20393;-81
2023/12/15 11:55:44;;;;;;;4.80;3.20;;;24.70;46.60;;;;;;5061783;28;20045;-84
2023/12/15 11:58:10;;;;;;;4.28;2.83;;;24.90;49.50;;;;;;5066696;28;20072;-78
2023/12/15 12:00:36;;;;;;;5.60;2.75;;;25.00;43.80;;;;;;5062486;28;20112;-84
2023/12/15 12:03:04;;;;;;;5.38;2.75;;;24.80;40.70;;;;;;5072718;28;20068;-80
2023/12/15 12:05:31;;;;;;;3.53;2.95;;;24.90;39.90;;;;;;5065835;28;20035;-83
2023/12/15 12:08:00;;;;;;;5.45;3.53;;;24.80;39.10;;;;;;5063477;28;20032;-84
2023/12/15 12:10:35;;;;;;;5.05;3.63;;;24.90;37.80;;;;;;5056402;28;20039;-80
2023/12/15 12:13:04;;;;;;;5.53;3.25;;;24.90;37.60;;;;;;5052249;28;20045;-87
2023/12/15 12:15:29;;;;;;;4.72;2.88;;;24.80;37.50;;;;;;5056470;28;20049;-76
2023/12/15 12:17:55;;;;;;;4.35;3.28;;;24.70;37.50;;;;;;5059398;28;20086;-77
2023/12/15 12:20:26;;;;;;;3.45;2.92;;;24.80;37.00;;;;;;5071860;28;20020;-77
2023/12/15 12:22:52;;;;;;;3.50;2.85;;;24.70;36.50;;;;;;5060729;28;20044;-78
2023/12/15 12:25:18;;;;;;;5.40;3.40;;;24.70;36.30;;;;;;5057422;28;20013;-78
2023/12/15 12:27:45;;;;;;;3.47;2.70;;;24.70;36.10;;;;;;5071812;28;20033;-77
2023/12/15 12:30:13;;;;;;;4.60;3.03;;;24.60;36.60;;;;;;5071525;28;20161;-77
2023/12/15 12:32:40;;;;;;;8.07;3.35;;;24.60;36.50;;;;;;5069967;28;20448;-77
2023/12/15 12:35:07;;;;;;;3.67;3.00;;;24.70;43.80;;;;;;5061705;28;20029;-79
2023/12/15 12:37:33;;;;;;;4.05;3.10;;;24.90;46.10;;;;;;5059281;28;20060;-80
2023/12/15 12:40:00;;;;;;;4.65;3.20;;;24.90;42.70;;;;;;5059784;28;20037;-76
2023/12/15 12:42:26;;;;;;;6.13;3.08;;;24.80;38.10;;;;;;5063757;28;20111;-82